Aviation Digital Data Service (ADDS)

Output produced by METARs form (1944 UTC 13 November 2019)
found at http://www.aviationweather.gov/metar/data/
 
METAR text: LFPO 131930Z 17008KT 9999 FEW011 BKN110 07/04 Q1000 NOSIG
Conditions at: LFPO (PARIS/ORLY , FR) observed 1930 UTC 13 November 2019
Temperature: 7.0°C (45°F)
Dewpoint: 4.0°C (39°F) [RH = 81%]
Pressure (altimeter): 29.53 inches Hg (1000.0 mb)
Winds: from the S (170 degrees) at 9 MPH (8 knots; 4.1 m/s)
Visibility: 6 or more miles (10+ km)
Ceiling: 11000 feet AGL
Clouds: few clouds at 1100 feet AGL
broken clouds at 11000 feet AGL
Weather: no significant weather observed at this time

METAR text: LFPO 131900Z 18008KT CAVOK 07/04 Q1001 NOSIG
Conditions at: LFPO (PARIS/ORLY , FR) observed 1900 UTC 13 November 2019
Temperature: 7.0°C (45°F)
Dewpoint: 4.0°C (39°F) [RH = 81%]
Pressure (altimeter): 29.56 inches Hg (1001.0 mb)
Winds: from the S (180 degrees) at 9 MPH (8 knots; 4.1 m/s)
Visibility: 6 or more miles (10+ km)
Ceiling: ceiling and visibility are OK
Clouds: unknown
Weather: no significant weather observed at this time

METAR text: LFPO 131830Z 19007KT CAVOK 07/04 Q1001 NOSIG
Conditions at: LFPO (PARIS/ORLY , FR) observed 1830 UTC 13 November 2019
Temperature: 7.0°C (45°F)
Dewpoint: 4.0°C (39°F) [RH = 81%]
Pressure (altimeter): 29.56 inches Hg (1001.0 mb)
Winds: from the S (190 degrees) at 8 MPH (7 knots; 3.6 m/s)
Visibility: 6 or more miles (10+ km)
Ceiling: ceiling and visibility are OK
Clouds: unknown
Weather: no significant weather observed at this time

METAR text: LFPO 131800Z 20008KT CAVOK 07/05 Q1001 NOSIG
Conditions at: LFPO (PARIS/ORLY , FR) observed 1800 UTC 13 November 2019
Temperature: 7.0°C (45°F)
Dewpoint: 5.0°C (41°F) [RH = 87%]
Pressure (altimeter): 29.56 inches Hg (1001.0 mb)
Winds: from the SSW (200 degrees) at 9 MPH (8 knots; 4.1 m/s)
Visibility: 6 or more miles (10+ km)
Ceiling: ceiling and visibility are OK
Clouds: unknown
Weather: no significant weather observed at this time

METAR text: LFPO 131730Z 20007KT CAVOK 07/05 Q1002 NOSIG
Conditions at: LFPO (PARIS/ORLY , FR) observed 1730 UTC 13 November 2019
Temperature: 7.0°C (45°F)
Dewpoint: 5.0°C (41°F) [RH = 87%]
Pressure (altimeter): 29.59 inches Hg (1002.0 mb)
Winds: from the SSW (200 degrees) at 8 MPH (7 knots; 3.6 m/s)
Visibility: 6 or more miles (10+ km)
Ceiling: ceiling and visibility are OK
Clouds: unknown
Weather: no significant weather observed at this time

METAR text: LFPO 131700Z 20007KT CAVOK 08/05 Q1002 NOSIG
Conditions at: LFPO (PARIS/ORLY , FR) observed 1700 UTC 13 November 2019
Temperature: 8.0°C (46°F)
Dewpoint: 5.0°C (41°F) [RH = 81%]
Pressure (altimeter): 29.59 inches Hg (1002.0 mb)
Winds: from the SSW (200 degrees) at 8 MPH (7 knots; 3.6 m/s)
Visibility: 6 or more miles (10+ km)
Ceiling: ceiling and visibility are OK
Clouds: unknown
Weather: no significant weather observed at this time

METAR text: LFPO 131630Z 22007KT 190V250 CAVOK 08/05 Q1002 NOSIG
Conditions at: LFPO (PARIS/ORLY , FR) observed 1630 UTC 13 November 2019
Temperature: 8.0°C (46°F)
Dewpoint: 5.0°C (41°F) [RH = 81%]
Pressure (altimeter): 29.59 inches Hg (1002.0 mb)
Winds: from the SW (220 degrees) at 8 MPH (7 knots; 3.6 m/s)
Visibility: 6 or more miles (10+ km)
Ceiling: ceiling and visibility are OK
Clouds: unknown
Weather: no significant weather observed at this time

METAR text: LFPO 131600Z 21006KT 9999 FEW028 SCT056 BKN086 09/05 Q1002 NOSIG
Conditions at: LFPO (PARIS/ORLY , FR) observed 1600 UTC 13 November 2019
Temperature: 9.0°C (48°F)
Dewpoint: 5.0°C (41°F) [RH = 76%]
Pressure (altimeter): 29.59 inches Hg (1002.0 mb)
Winds: from the SSW (210 degrees) at 7 MPH (6 knots; 3.1 m/s)
Visibility: 6 or more miles (10+ km)
Ceiling: 8600 feet AGL
Clouds: few clouds at 2800 feet AGL
scattered clouds at 5600 feet AGL
broken clouds at 8600 feet AGL
Weather: no significant weather observed at this time

METAR text: LFPO 131530Z 23010KT 9999 FEW026 SCT056 BKN086 09/05 Q1003 NOSIG
Conditions at: LFPO (PARIS/ORLY , FR) observed 1530 UTC 13 November 2019
Temperature: 9.0°C (48°F)
Dewpoint: 5.0°C (41°F) [RH = 76%]
Pressure (altimeter): 29.62 inches Hg (1003.0 mb)
Winds: from the SW (230 degrees) at 12 MPH (10 knots; 5.1 m/s)
Visibility: 6 or more miles (10+ km)
Ceiling: 8600 feet AGL
Clouds: few clouds at 2600 feet AGL
scattered clouds at 5600 feet AGL
broken clouds at 8600 feet AGL
Weather: no significant weather observed at this time

METAR text: LFPO 131500Z 23009KT 9999 FEW023 SCT033 BKN086 09/05 Q1003 NOSIG
Conditions at: LFPO (PARIS/ORLY , FR) observed 1500 UTC 13 November 2019
Temperature: 9.0°C (48°F)
Dewpoint: 5.0°C (41°F) [RH = 76%]
Pressure (altimeter): 29.62 inches Hg (1003.0 mb)
Winds: from the SW (230 degrees) at 10 MPH (9 knots; 4.6 m/s)
Visibility: 6 or more miles (10+ km)
Ceiling: 8600 feet AGL
Clouds: few clouds at 2300 feet AGL
scattered clouds at 3300 feet AGL
broken clouds at 8600 feet AGL
Weather: no significant weather observed at this time

METAR text: LFPO 131430Z 24009KT 9999 FEW023TCU SCT033 BKN066 10/05 Q1003 NOSIG
Conditions at: LFPO (PARIS/ORLY , FR) observed 1430 UTC 13 November 2019
Temperature: 10.0°C (50°F)
Dewpoint: 5.0°C (41°F) [RH = 71%]
Pressure (altimeter): 29.62 inches Hg (1003.0 mb)
Winds: from the WSW (240 degrees) at 10 MPH (9 knots; 4.6 m/s)
Visibility: 6 or more miles (10+ km)
Ceiling: 6600 feet AGL
Clouds: few clouds at 2300 feet AGL
scattered clouds at 3300 feet AGL
broken clouds at 6600 feet AGL
Weather: no significant weather observed at this time

METAR text: LFPO 131400Z 24010KT 9999 SCT026 SCT033 BKN093 10/05 Q1003 NOSIG
Conditions at: LFPO (PARIS/ORLY , FR) observed 1400 UTC 13 November 2019
Temperature: 10.0°C (50°F)
Dewpoint: 5.0°C (41°F) [RH = 71%]
Pressure (altimeter): 29.62 inches Hg (1003.0 mb)
Winds: from the WSW (240 degrees) at 12 MPH (10 knots; 5.1 m/s)
Visibility: 6 or more miles (10+ km)
Ceiling: 9300 feet AGL
Clouds: scattered clouds at 2600 feet AGL
scattered clouds at 3300 feet AGL
broken clouds at 9300 feet AGL
Weather: no significant weather observed at this time

METAR text: LFPO 131330Z 23010KT 170V250 9999 SCT026 SCT046 10/05 Q1003 NOSIG
Conditions at: LFPO (PARIS/ORLY , FR) observed 1330 UTC 13 November 2019
Temperature: 10.0°C (50°F)
Dewpoint: 5.0°C (41°F) [RH = 71%]
Pressure (altimeter): 29.62 inches Hg (1003.0 mb)
Winds: from the SW (230 degrees) at 12 MPH (10 knots; 5.1 m/s)
Visibility: 6 or more miles (10+ km)
Ceiling: at least 12,000 feet AGL
Clouds: scattered clouds at 2600 feet AGL
scattered clouds at 4600 feet AGL
Weather: no significant weather observed at this time

METAR text: LFPO 131300Z 23011KT 9999 SCT026 SCT053 10/05 Q1003 NOSIG
Conditions at: LFPO (PARIS/ORLY , FR) observed 1300 UTC 13 November 2019
Temperature: 10.0°C (50°F)
Dewpoint: 5.0°C (41°F) [RH = 71%]
Pressure (altimeter): 29.62 inches Hg (1003.0 mb)
Winds: from the SW (230 degrees) at 13 MPH (11 knots; 5.7 m/s)
Visibility: 6 or more miles (10+ km)
Ceiling: at least 12,000 feet AGL
Clouds: scattered clouds at 2600 feet AGL
scattered clouds at 5300 feet AGL
Weather: no significant weather observed at this time

METAR text: LFPO 131230Z 23010KT 200V270 9999 SCT021 10/05 Q1004 NOSIG
Conditions at: LFPO (PARIS/ORLY , FR) observed 1230 UTC 13 November 2019
Temperature: 10.0°C (50°F)
Dewpoint: 5.0°C (41°F) [RH = 71%]
Pressure (altimeter): 29.65 inches Hg (1004.0 mb)
Winds: from the SW (230 degrees) at 12 MPH (10 knots; 5.1 m/s)
Visibility: 6 or more miles (10+ km)
Ceiling: at least 12,000 feet AGL
Clouds: scattered clouds at 2100 feet AGL
Weather: no significant weather observed at this time

METAR text: LFPO 131200Z 26010KT 9999 SCT020 SCT053 10/06 Q1004 NOSIG
Conditions at: LFPO (PARIS/ORLY , FR) observed 1200 UTC 13 November 2019
Temperature: 10.0°C (50°F)
Dewpoint: 6.0°C (43°F) [RH = 76%]
Pressure (altimeter): 29.65 inches Hg (1004.0 mb)
Winds: from the W (260 degrees) at 12 MPH (10 knots; 5.1 m/s)
Visibility: 6 or more miles (10+ km)
Ceiling: at least 12,000 feet AGL
Clouds: scattered clouds at 2000 feet AGL
scattered clouds at 5300 feet AGL
Weather: no significant weather observed at this time

METAR text: LFPO 131130Z 22006KT 9999 FEW016 FEW020TCU BKN053 09/06 Q1004 NOSIG
Conditions at: LFPO (PARIS/ORLY , FR) observed 1130 UTC 13 November 2019
Temperature: 9.0°C (48°F)
Dewpoint: 6.0°C (43°F) [RH = 81%]
Pressure (altimeter): 29.65 inches Hg (1004.0 mb)
Winds: from the SW (220 degrees) at 7 MPH (6 knots; 3.1 m/s)
Visibility: 6 or more miles (10+ km)
Ceiling: 5300 feet AGL
Clouds: few clouds at 1600 feet AGL
few clouds at 2000 feet AGL
broken clouds at 5300 feet AGL
Weather: no significant weather observed at this time

METAR text: LFPO 131100Z 25007KT 9999 FEW015 BKN070 08/06 Q1004 NOSIG
Conditions at: LFPO (PARIS/ORLY , FR) observed 1100 UTC 13 November 2019
Temperature: 8.0°C (46°F)
Dewpoint: 6.0°C (43°F) [RH = 87%]
Pressure (altimeter): 29.65 inches Hg (1004.0 mb)
Winds: from the WSW (250 degrees) at 8 MPH (7 knots; 3.6 m/s)
Visibility: 6 or more miles (10+ km)
Ceiling: 7000 feet AGL
Clouds: few clouds at 1500 feet AGL
broken clouds at 7000 feet AGL
Weather: no significant weather observed at this time

METAR text: LFPO 131030Z 25008KT 9999 FEW012 BKN073 08/06 Q1005 NOSIG
Conditions at: LFPO (PARIS/ORLY , FR) observed 1030 UTC 13 November 2019
Temperature: 8.0°C (46°F)
Dewpoint: 6.0°C (43°F) [RH = 87%]
Pressure (altimeter): 29.68 inches Hg (1005.0 mb)
Winds: from the WSW (250 degrees) at 9 MPH (8 knots; 4.1 m/s)
Visibility: 6 or more miles (10+ km)
Ceiling: 7300 feet AGL
Clouds: few clouds at 1200 feet AGL
broken clouds at 7300 feet AGL
Weather: no significant weather observed at this time

METAR text: LFPO 131000Z 24008KT 9999 FEW011 SCT046 BKN073 07/05 Q1005 NOSIG
Conditions at: LFPO (PARIS/ORLY , FR) observed 1000 UTC 13 November 2019
Temperature: 7.0°C (45°F)
Dewpoint: 5.0°C (41°F) [RH = 87%]
Pressure (altimeter): 29.68 inches Hg (1005.0 mb)
Winds: from the WSW (240 degrees) at 9 MPH (8 knots; 4.1 m/s)
Visibility: 6 or more miles (10+ km)
Ceiling: 7300 feet AGL
Clouds: few clouds at 1100 feet AGL
scattered clouds at 4600 feet AGL
broken clouds at 7300 feet AGL
Weather: no significant weather observed at this time

METAR text: LFPO 130930Z 25008KT 9999 FEW010 SCT030 BKN046 07/06 Q1005 NOSIG
Conditions at: LFPO (PARIS/ORLY , FR) observed 0930 UTC 13 November 2019
Temperature: 7.0°C (45°F)
Dewpoint: 6.0°C (43°F) [RH = 93%]
Pressure (altimeter): 29.68 inches Hg (1005.0 mb)
Winds: from the WSW (250 degrees) at 9 MPH (8 knots; 4.1 m/s)
Visibility: 6 or more miles (10+ km)
Ceiling: 4600 feet AGL
Clouds: few clouds at 1000 feet AGL
scattered clouds at 3000 feet AGL
broken clouds at 4600 feet AGL
Weather: no significant weather observed at this time

METAR text: LFPO 130900Z 25009KT CAVOK 06/04 Q1005 NOSIG
Conditions at: LFPO (PARIS/ORLY , FR) observed 0900 UTC 13 November 2019
Temperature: 6.0°C (43°F)
Dewpoint: 4.0°C (39°F) [RH = 87%]
Pressure (altimeter): 29.68 inches Hg (1005.0 mb)
Winds: from the WSW (250 degrees) at 10 MPH (9 knots; 4.6 m/s)
Visibility: 6 or more miles (10+ km)
Ceiling: ceiling and visibility are OK
Clouds: unknown
Weather: no significant weather observed at this time

METAR text: LFPO 130830Z 25007KT CAVOK 06/05 Q1005 NOSIG
Conditions at: LFPO (PARIS/ORLY , FR) observed 0830 UTC 13 November 2019
Temperature: 6.0°C (43°F)
Dewpoint: 5.0°C (41°F) [RH = 93%]
Pressure (altimeter): 29.68 inches Hg (1005.0 mb)
Winds: from the WSW (250 degrees) at 8 MPH (7 knots; 3.6 m/s)
Visibility: 6 or more miles (10+ km)
Ceiling: ceiling and visibility are OK
Clouds: unknown
Weather: no significant weather observed at this time

METAR text: LFPO 130800Z 25007KT 9999 SCT033 BKN053 04/04 Q1004 NOSIG
Conditions at: LFPO (PARIS/ORLY , FR) observed 0800 UTC 13 November 2019
Temperature: 4.0°C (39°F)
Dewpoint: 4.0°C (39°F) [RH = 100%]
Pressure (altimeter): 29.65 inches Hg (1004.0 mb)
Winds: from the WSW (250 degrees) at 8 MPH (7 knots; 3.6 m/s)
Visibility: 6 or more miles (10+ km)
Ceiling: 5300 feet AGL
Clouds: scattered clouds at 3300 feet AGL
broken clouds at 5300 feet AGL
Weather: no significant weather observed at this time

METAR text: LFPO 130730Z 25008KT 9999 SCT040 BKN053 04/04 Q1004 NOSIG
Conditions at: LFPO (PARIS/ORLY , FR) observed 0730 UTC 13 November 2019
Temperature: 4.0°C (39°F)
Dewpoint: 4.0°C (39°F) [RH = 100%]
Pressure (altimeter): 29.65 inches Hg (1004.0 mb)
Winds: from the WSW (250 degrees) at 9 MPH (8 knots; 4.1 m/s)
Visibility: 6 or more miles (10+ km)
Ceiling: 5300 feet AGL
Clouds: scattered clouds at 4000 feet AGL
broken clouds at 5300 feet AGL
Weather: no significant weather observed at this time

METAR text: LFPO 130700Z 26007KT 9999 SCT033 BKN053 05/04 Q1004 NOSIG
Conditions at: LFPO (PARIS/ORLY , FR) observed 0700 UTC 13 November 2019
Temperature: 5.0°C (41°F)
Dewpoint: 4.0°C (39°F) [RH = 93%]
Pressure (altimeter): 29.65 inches Hg (1004.0 mb)
Winds: from the W (260 degrees) at 8 MPH (7 knots; 3.6 m/s)
Visibility: 6 or more miles (10+ km)
Ceiling: 5300 feet AGL
Clouds: scattered clouds at 3300 feet AGL
broken clouds at 5300 feet AGL
Weather: no significant weather observed at this time

METAR text: LFPO 130630Z 28006KT 250V310 9999 SCT033 BKN053 05/04 Q1004 NOSIG
Conditions at: LFPO (PARIS/ORLY , FR) observed 0630 UTC 13 November 2019
Temperature: 5.0°C (41°F)
Dewpoint: 4.0°C (39°F) [RH = 93%]
Pressure (altimeter): 29.65 inches Hg (1004.0 mb)
Winds: from the W (280 degrees) at 7 MPH (6 knots; 3.1 m/s)
Visibility: 6 or more miles (10+ km)
Ceiling: 5300 feet AGL
Clouds: scattered clouds at 3300 feet AGL
broken clouds at 5300 feet AGL
Weather: no significant weather observed at this time

METAR text: LFPO 130600Z 25006KT 230V290 9999 SCT030 BKN053 04/04 Q1003 NOSIG
Conditions at: LFPO (PARIS/ORLY , FR) observed 0600 UTC 13 November 2019
Temperature: 4.0°C (39°F)
Dewpoint: 4.0°C (39°F) [RH = 100%]
Pressure (altimeter): 29.62 inches Hg (1003.0 mb)
Winds: from the WSW (250 degrees) at 7 MPH (6 knots; 3.1 m/s)
Visibility: 6 or more miles (10+ km)
Ceiling: 5300 feet AGL
Clouds: scattered clouds at 3000 feet AGL
broken clouds at 5300 feet AGL
Weather: no significant weather observed at this time

METAR text: LFPO 130530Z 26006KT 9999 SCT030 BKN055 03/03 Q1003 NOSIG
Conditions at: LFPO (PARIS/ORLY , FR) observed 0530 UTC 13 November 2019
Temperature: 3.0°C (37°F)
Dewpoint: 3.0°C (37°F) [RH = 100%]
Pressure (altimeter): 29.62 inches Hg (1003.0 mb)
Winds: from the W (260 degrees) at 7 MPH (6 knots; 3.1 m/s)
Visibility: 6 or more miles (10+ km)
Ceiling: 5500 feet AGL
Clouds: scattered clouds at 3000 feet AGL
broken clouds at 5500 feet AGL
Weather: no significant weather observed at this time

METAR text: LFPO 130500Z 26008KT CAVOK 03/02 Q1003 NOSIG
Conditions at: LFPO (PARIS/ORLY , FR) observed 0500 UTC 13 November 2019
Temperature: 3.0°C (37°F)
Dewpoint: 2.0°C (36°F) [RH = 93%]
Pressure (altimeter): 29.62 inches Hg (1003.0 mb)
Winds: from the W (260 degrees) at 9 MPH (8 knots; 4.1 m/s)
Visibility: 6 or more miles (10+ km)
Ceiling: ceiling and visibility are OK
Clouds: unknown
Weather: no significant weather observed at this time

METAR text: LFPO 130430Z 25006KT 9999 SCT033 BKN053 03/02 Q1003 NOSIG
Conditions at: LFPO (PARIS/ORLY , FR) observed 0430 UTC 13 November 2019
Temperature: 3.0°C (37°F)
Dewpoint: 2.0°C (36°F) [RH = 93%]
Pressure (altimeter): 29.62 inches Hg (1003.0 mb)
Winds: from the WSW (250 degrees) at 7 MPH (6 knots; 3.1 m/s)
Visibility: 6 or more miles (10+ km)
Ceiling: 5300 feet AGL
Clouds: scattered clouds at 3300 feet AGL
broken clouds at 5300 feet AGL
Weather: no significant weather observed at this time

METAR text: LFPO 130400Z 27008KT 9999 SCT033 BKN053 03/02 Q1003 NOSIG
Conditions at: LFPO (PARIS/ORLY , FR) observed 0400 UTC 13 November 2019
Temperature: 3.0°C (37°F)
Dewpoint: 2.0°C (36°F) [RH = 93%]
Pressure (altimeter): 29.62 inches Hg (1003.0 mb)
Winds: from the W (270 degrees) at 9 MPH (8 knots; 4.1 m/s)
Visibility: 6 or more miles (10+ km)
Ceiling: 5300 feet AGL
Clouds: scattered clouds at 3300 feet AGL
broken clouds at 5300 feet AGL
Weather: no significant weather observed at this time

METAR text: LFPO 130330Z 26011KT CAVOK 03/03 Q1002 NOSIG
Conditions at: LFPO (PARIS/ORLY , FR) observed 0330 UTC 13 November 2019
Temperature: 3.0°C (37°F)
Dewpoint: 3.0°C (37°F) [RH = 100%]
Pressure (altimeter): 29.59 inches Hg (1002.0 mb)
Winds: from the W (260 degrees) at 13 MPH (11 knots; 5.7 m/s)
Visibility: 6 or more miles (10+ km)
Ceiling: ceiling and visibility are OK
Clouds: unknown
Weather: no significant weather observed at this time

METAR text: LFPO 130300Z 24010KT 9999 FEW025 BKN053 04/03 Q1002 NOSIG
Conditions at: LFPO (PARIS/ORLY , FR) observed 0300 UTC 13 November 2019
Temperature: 4.0°C (39°F)
Dewpoint: 3.0°C (37°F) [RH = 93%]
Pressure (altimeter): 29.59 inches Hg (1002.0 mb)
Winds: from the WSW (240 degrees) at 12 MPH (10 knots; 5.1 m/s)
Visibility: 6 or more miles (10+ km)
Ceiling: 5300 feet AGL
Clouds: few clouds at 2500 feet AGL
broken clouds at 5300 feet AGL
Weather: no significant weather observed at this time

METAR text: LFPO 130230Z 26010KT 9999 FEW025 SCT046 03/02 Q1002 NOSIG
Conditions at: LFPO (PARIS/ORLY , FR) observed 0230 UTC 13 November 2019
Temperature: 3.0°C (37°F)
Dewpoint: 2.0°C (36°F) [RH = 93%]
Pressure (altimeter): 29.59 inches Hg (1002.0 mb)
Winds: from the W (260 degrees) at 12 MPH (10 knots; 5.1 m/s)
Visibility: 6 or more miles (10+ km)
Ceiling: at least 12,000 feet AGL
Clouds: few clouds at 2500 feet AGL
scattered clouds at 4600 feet AGL
Weather: no significant weather observed at this time

METAR text: LFPO 130200Z 25009KT 9999 FEW025 SCT046 04/03 Q1002 NOSIG
Conditions at: LFPO (PARIS/ORLY , FR) observed 0200 UTC 13 November 2019
Temperature: 4.0°C (39°F)
Dewpoint: 3.0°C (37°F) [RH = 93%]
Pressure (altimeter): 29.59 inches Hg (1002.0 mb)
Winds: from the WSW (250 degrees) at 10 MPH (9 knots; 4.6 m/s)
Visibility: 6 or more miles (10+ km)
Ceiling: at least 12,000 feet AGL
Clouds: few clouds at 2500 feet AGL
scattered clouds at 4600 feet AGL
Weather: no significant weather observed at this time

METAR text: LFPO 130130Z 25010KT 9999 FEW031 BKN083 04/03 Q1003 NOSIG
Conditions at: LFPO (PARIS/ORLY , FR) observed 0130 UTC 13 November 2019
Temperature: 4.0°C (39°F)
Dewpoint: 3.0°C (37°F) [RH = 93%]
Pressure (altimeter): 29.62 inches Hg (1003.0 mb)
Winds: from the WSW (250 degrees) at 12 MPH (10 knots; 5.1 m/s)
Visibility: 6 or more miles (10+ km)
Ceiling: 8300 feet AGL
Clouds: few clouds at 3100 feet AGL
broken clouds at 8300 feet AGL
Weather: no significant weather observed at this time

METAR text: LFPO 130100Z 25010KT 9999 SCT031 04/03 Q1003 NOSIG
Conditions at: LFPO (PARIS/ORLY , FR) observed 0100 UTC 13 November 2019
Temperature: 4.0°C (39°F)
Dewpoint: 3.0°C (37°F) [RH = 93%]
Pressure (altimeter): 29.62 inches Hg (1003.0 mb)
Winds: from the WSW (250 degrees) at 12 MPH (10 knots; 5.1 m/s)
Visibility: 6 or more miles (10+ km)
Ceiling: at least 12,000 feet AGL
Clouds: scattered clouds at 3100 feet AGL
Weather: no significant weather observed at this time

METAR text: LFPO 130030Z 25009KT 9999 SCT036 04/03 Q1002 NOSIG
Conditions at: LFPO (PARIS/ORLY , FR) observed 0030 UTC 13 November 2019
Temperature: 4.0°C (39°F)
Dewpoint: 3.0°C (37°F) [RH = 93%]
Pressure (altimeter): 29.59 inches Hg (1002.0 mb)
Winds: from the WSW (250 degrees) at 10 MPH (9 knots; 4.6 m/s)
Visibility: 6 or more miles (10+ km)
Ceiling: at least 12,000 feet AGL
Clouds: scattered clouds at 3600 feet AGL
Weather: no significant weather observed at this time

METAR text: LFPO 130000Z 24008KT 9999 FEW036 04/03 Q1002 NOSIG
Conditions at: LFPO (PARIS/ORLY , FR) observed 0000 UTC 13 November 2019
Temperature: 4.0°C (39°F)
Dewpoint: 3.0°C (37°F) [RH = 93%]
Pressure (altimeter): 29.59 inches Hg (1002.0 mb)
Winds: from the WSW (240 degrees) at 9 MPH (8 knots; 4.1 m/s)
Visibility: 6 or more miles (10+ km)
Ceiling: at least 12,000 feet AGL
Clouds: few clouds at 3600 feet AGL
Weather: no significant weather observed at this time

METAR text: LFPO 122330Z 23008KT 9999 -SHRA BKN036 04/03 Q1002 NOSIG
Conditions at: LFPO (PARIS/ORLY , FR) observed 2330 UTC 12 November 2019
Temperature: 4.0°C (39°F)
Dewpoint: 3.0°C (37°F) [RH = 93%]
Pressure (altimeter): 29.59 inches Hg (1002.0 mb)
Winds: from the SW (230 degrees) at 9 MPH (8 knots; 4.1 m/s)
Visibility: 6 or more miles (10+ km)
Ceiling: 3600 feet AGL
Clouds: broken clouds at 3600 feet AGL
Weather: -SHRA  (light rain showers)

METAR text: LFPO 122300Z 23007KT 9999 -SHRA BKN036 04/02 Q1003 NOSIG
Conditions at: LFPO (PARIS/ORLY , FR) observed 2300 UTC 12 November 2019
Temperature: 4.0°C (39°F)
Dewpoint: 2.0°C (36°F) [RH = 87%]
Pressure (altimeter): 29.62 inches Hg (1003.0 mb)
Winds: from the SW (230 degrees) at 8 MPH (7 knots; 3.6 m/s)
Visibility: 6 or more miles (10+ km)
Ceiling: 3600 feet AGL
Clouds: broken clouds at 3600 feet AGL
Weather: -SHRA  (light rain showers)

METAR text: LFPO 122230Z 22006KT 9999 BKN041 04/02 Q1003 NOSIG
Conditions at: LFPO (PARIS/ORLY , FR) observed 2230 UTC 12 November 2019
Temperature: 4.0°C (39°F)
Dewpoint: 2.0°C (36°F) [RH = 87%]
Pressure (altimeter): 29.62 inches Hg (1003.0 mb)
Winds: from the SW (220 degrees) at 7 MPH (6 knots; 3.1 m/s)
Visibility: 6 or more miles (10+ km)
Ceiling: 4100 feet AGL
Clouds: broken clouds at 4100 feet AGL
Weather: no significant weather observed at this time

METAR text: LFPO 122200Z 22006KT CAVOK 04/02 Q1003 NOSIG
Conditions at: LFPO (PARIS/ORLY , FR) observed 2200 UTC 12 November 2019
Temperature: 4.0°C (39°F)
Dewpoint: 2.0°C (36°F) [RH = 87%]
Pressure (altimeter): 29.62 inches Hg (1003.0 mb)
Winds: from the SW (220 degrees) at 7 MPH (6 knots; 3.1 m/s)
Visibility: 6 or more miles (10+ km)
Ceiling: ceiling and visibility are OK
Clouds: unknown
Weather: no significant weather observed at this time

METAR text: LFPO 122130Z 24007KT CAVOK 03/02 Q1003 NOSIG
Conditions at: LFPO (PARIS/ORLY , FR) observed 2130 UTC 12 November 2019
Temperature: 3.0°C (37°F)
Dewpoint: 2.0°C (36°F) [RH = 93%]
Pressure (altimeter): 29.62 inches Hg (1003.0 mb)
Winds: from the WSW (240 degrees) at 8 MPH (7 knots; 3.6 m/s)
Visibility: 6 or more miles (10+ km)
Ceiling: ceiling and visibility are OK
Clouds: unknown
Weather: no significant weather observed at this time

METAR text: LFPO 122100Z 21005KT 190V250 CAVOK 04/02 Q1003 NOSIG
Conditions at: LFPO (PARIS/ORLY , FR) observed 2100 UTC 12 November 2019
Temperature: 4.0°C (39°F)
Dewpoint: 2.0°C (36°F) [RH = 87%]
Pressure (altimeter): 29.62 inches Hg (1003.0 mb)
Winds: from the SSW (210 degrees) at 6 MPH (5 knots; 2.6 m/s)
Visibility: 6 or more miles (10+ km)
Ceiling: ceiling and visibility are OK
Clouds: unknown
Weather: no significant weather observed at this time

METAR text: LFPO 122030Z 22003KT 190V250 CAVOK 04/02 Q1003 NOSIG
Conditions at: LFPO (PARIS/ORLY , FR) observed 2030 UTC 12 November 2019
Temperature: 4.0°C (39°F)
Dewpoint: 2.0°C (36°F) [RH = 87%]
Pressure (altimeter): 29.62 inches Hg (1003.0 mb)
Winds: from the SW (220 degrees) at 3 MPH (3 knots; 1.5 m/s)
Visibility: 6 or more miles (10+ km)
Ceiling: ceiling and visibility are OK
Clouds: unknown
Weather: no significant weather observed at this time

METAR text: LFPO 122000Z 22005KT 9999 FEW046 03/02 Q1003 NOSIG
Conditions at: LFPO (PARIS/ORLY , FR) observed 2000 UTC 12 November 2019
Temperature: 3.0°C (37°F)
Dewpoint: 2.0°C (36°F) [RH = 93%]
Pressure (altimeter): 29.62 inches Hg (1003.0 mb)
Winds: from the SW (220 degrees) at 6 MPH (5 knots; 2.6 m/s)
Visibility: 6 or more miles (10+ km)
Ceiling: at least 12,000 feet AGL
Clouds: few clouds at 4600 feet AGL
Weather: no significant weather observed at this time

METAR text: LFPO 121930Z 23005KT CAVOK 04/02 Q1003 NOSIG
Conditions at: LFPO (PARIS/ORLY , FR) observed 1930 UTC 12 November 2019
Temperature: 4.0°C (39°F)
Dewpoint: 2.0°C (36°F) [RH = 87%]
Pressure (altimeter): 29.62 inches Hg (1003.0 mb)
Winds: from the SW (230 degrees) at 6 MPH (5 knots; 2.6 m/s)
Visibility: 6 or more miles (10+ km)
Ceiling: ceiling and visibility are OK
Clouds: unknown
Weather: no significant weather observed at this time

METAR text: LFPO 121900Z 23007KT CAVOK 04/02 Q1003 NOSIG
Conditions at: LFPO (PARIS/ORLY , FR) observed 1900 UTC 12 November 2019
Temperature: 4.0°C (39°F)
Dewpoint: 2.0°C (36°F) [RH = 87%]
Pressure (altimeter): 29.62 inches Hg (1003.0 mb)
Winds: from the SW (230 degrees) at 8 MPH (7 knots; 3.6 m/s)
Visibility: 6 or more miles (10+ km)
Ceiling: ceiling and visibility are OK
Clouds: unknown
Weather: no significant weather observed at this time

METAR text: LFPO 121830Z 23006KT CAVOK 04/02 Q1003 NOSIG
Conditions at: LFPO (PARIS/ORLY , FR) observed 1830 UTC 12 November 2019
Temperature: 4.0°C (39°F)
Dewpoint: 2.0°C (36°F) [RH = 87%]
Pressure (altimeter): 29.62 inches Hg (1003.0 mb)
Winds: from the SW (230 degrees) at 7 MPH (6 knots; 3.1 m/s)
Visibility: 6 or more miles (10+ km)
Ceiling: ceiling and visibility are OK
Clouds: unknown
Weather: no significant weather observed at this time

METAR text: LFPO 121800Z 23005KT CAVOK 04/02 Q1003 NOSIG
Conditions at: LFPO (PARIS/ORLY , FR) observed 1800 UTC 12 November 2019
Temperature: 4.0°C (39°F)
Dewpoint: 2.0°C (36°F) [RH = 87%]
Pressure (altimeter): 29.62 inches Hg (1003.0 mb)
Winds: from the SW (230 degrees) at 6 MPH (5 knots; 2.6 m/s)
Visibility: 6 or more miles (10+ km)
Ceiling: ceiling and visibility are OK
Clouds: unknown
Weather: no significant weather observed at this time

METAR text: LFPO 121730Z 24006KT CAVOK 05/02 Q1003 NOSIG
Conditions at: LFPO (PARIS/ORLY , FR) observed 1730 UTC 12 November 2019
Temperature: 5.0°C (41°F)
Dewpoint: 2.0°C (36°F) [RH = 81%]
Pressure (altimeter): 29.62 inches Hg (1003.0 mb)
Winds: from the WSW (240 degrees) at 7 MPH (6 knots; 3.1 m/s)
Visibility: 6 or more miles (10+ km)
Ceiling: ceiling and visibility are OK
Clouds: unknown
Weather: no significant weather observed at this time

METAR text: LFPO 121700Z 23006KT CAVOK 05/02 Q1004 NOSIG
Conditions at: LFPO (PARIS/ORLY , FR) observed 1700 UTC 12 November 2019
Temperature: 5.0°C (41°F)
Dewpoint: 2.0°C (36°F) [RH = 81%]
Pressure (altimeter): 29.65 inches Hg (1004.0 mb)
Winds: from the SW (230 degrees) at 7 MPH (6 knots; 3.1 m/s)
Visibility: 6 or more miles (10+ km)
Ceiling: ceiling and visibility are OK
Clouds: unknown
Weather: no significant weather observed at this time

METAR text: LFPO 121630Z 25006KT 9999 FEW030 SCT110 04/02 Q1004 NOSIG
Conditions at: LFPO (PARIS/ORLY , FR) observed 1630 UTC 12 November 2019
Temperature: 4.0°C (39°F)
Dewpoint: 2.0°C (36°F) [RH = 87%]
Pressure (altimeter): 29.65 inches Hg (1004.0 mb)
Winds: from the WSW (250 degrees) at 7 MPH (6 knots; 3.1 m/s)
Visibility: 6 or more miles (10+ km)
Ceiling: at least 12,000 feet AGL
Clouds: few clouds at 3000 feet AGL
scattered clouds at 11000 feet AGL
Weather: no significant weather observed at this time

METAR text: LFPO 121600Z 30004KT 240V050 9999 FEW029 SCT050 05/02 Q1004 TEMPO 2500 SHRA SCT018CB
Conditions at: LFPO (PARIS/ORLY , FR) observed 1600 UTC 12 November 2019
Temperature: 5.0°C (41°F)
Dewpoint: 2.0°C (36°F) [RH = 81%]
Pressure (altimeter): 29.65 inches Hg (1004.0 mb)
Winds: from the WNW (300 degrees) at 5 MPH (4 knots; 2.1 m/s)
Visibility: 6 or more miles (10+ km)
Ceiling: at least 12,000 feet AGL
Clouds: few clouds at 2900 feet AGL
scattered clouds at 5000 feet AGL
Weather: no significant weather observed at this time

METAR text: LFPO 121530Z VRB03KT 9999 SCT026 FEW031TCU BKN042 06/03 Q1004 TEMPO 2500 SHRA SCT018CB
Conditions at: LFPO (PARIS/ORLY , FR) observed 1530 UTC 12 November 2019
Temperature: 6.0°C (43°F)
Dewpoint: 3.0°C (37°F) [RH = 81%]
Pressure (altimeter): 29.65 inches Hg (1004.0 mb)
Winds: variable direction winds at 3 MPH (3 knots; 1.5 m/s)
Visibility: 6 or more miles (10+ km)
Ceiling: 4200 feet AGL
Clouds: scattered clouds at 2600 feet AGL
few clouds at 3100 feet AGL
broken clouds at 4200 feet AGL
Weather: no significant weather observed at this time

METAR text: LFPO 121500Z 26010KT 230V320 9999 SCT025 FEW033CB SCT066 08/03 Q1004 TEMPO 2500 SHRA SCT018CB
Conditions at: LFPO (PARIS/ORLY , FR) observed 1500 UTC 12 November 2019
Temperature: 8.0°C (46°F)
Dewpoint: 3.0°C (37°F) [RH = 71%]
Pressure (altimeter): 29.65 inches Hg (1004.0 mb)
Winds: from the W (260 degrees) at 12 MPH (10 knots; 5.1 m/s)
Visibility: 6 or more miles (10+ km)
Ceiling: at least 12,000 feet AGL
Clouds: scattered clouds at 2500 feet AGL
few clouds at 3300 feet AGL
scattered clouds at 6600 feet AGL
Weather: no significant weather observed at this time

METAR text: LFPO 121430Z 23013KT 9999 SCT019 SCT040CB 09/03 Q1003 TEMPO 2500 SHRA SCT018CB
Conditions at: LFPO (PARIS/ORLY , FR) observed 1430 UTC 12 November 2019
Temperature: 9.0°C (48°F)
Dewpoint: 3.0°C (37°F) [RH = 66%]
Pressure (altimeter): 29.62 inches Hg (1003.0 mb)
Winds: from the SW (230 degrees) at 15 MPH (13 knots; 6.7 m/s)
Visibility: 6 or more miles (10+ km)
Ceiling: at least 12,000 feet AGL
Clouds: scattered clouds at 1900 feet AGL
scattered clouds at 4000 feet AGL
Weather: no significant weather observed at this time

METAR text: LFPO 121330Z VRB02KT 9999 SCT030 SCT038 08/04 Q1004 TEMPO 2500 SHRA SCT018CB
Conditions at: LFPO (PARIS/ORLY , FR) observed 1330 UTC 12 November 2019
Temperature: 8.0°C (46°F)
Dewpoint: 4.0°C (39°F) [RH = 76%]
Pressure (altimeter): 29.65 inches Hg (1004.0 mb)
Winds: variable direction winds at 2 MPH (2 knots; 1.0 m/s)
Visibility: 6 or more miles (10+ km)
Ceiling: at least 12,000 feet AGL
Clouds: scattered clouds at 3000 feet AGL
scattered clouds at 3800 feet AGL
Weather: no significant weather observed at this time

METAR text: LFPO 121300Z 32005KT 270V010 9999 SCT026 FEW032CB SCT040 06/03 Q1004 TEMPO 3000 SHRA BKN020CB
Conditions at: LFPO (PARIS/ORLY , FR) observed 1300 UTC 12 November 2019
Temperature: 6.0°C (43°F)
Dewpoint: 3.0°C (37°F) [RH = 81%]
Pressure (altimeter): 29.65 inches Hg (1004.0 mb)
Winds: from the NW (320 degrees) at 6 MPH (5 knots; 2.6 m/s)
Visibility: 6 or more miles (10+ km)
Ceiling: at least 12,000 feet AGL
Clouds: scattered clouds at 2600 feet AGL
few clouds at 3200 feet AGL
scattered clouds at 4000 feet AGL
Weather: no significant weather observed at this time

METAR text: LFPO 121230Z 24012KT 8000 SCT021CB BKN023 09/04 Q1004 TEMPO 3000 SHRA BKN020CB
Conditions at: LFPO (PARIS/ORLY , FR) observed 1230 UTC 12 November 2019
Temperature: 9.0°C (48°F)
Dewpoint: 4.0°C (39°F) [RH = 71%]
Pressure (altimeter): 29.65 inches Hg (1004.0 mb)
Winds: from the WSW (240 degrees) at 14 MPH (12 knots; 6.2 m/s)
Visibility: 5 miles ( 8 km)
Ceiling: 2300 feet AGL
Clouds: scattered clouds at 2100 feet AGL
broken clouds at 2300 feet AGL
Weather: no significant weather observed at this time

METAR text: LFPO 121200Z 25012KT 9999 SCT023 FEW023CB SCT040 08/04 Q1004 TEMPO 3000 SHRA BKN020CB
Conditions at: LFPO (PARIS/ORLY , FR) observed 1200 UTC 12 November 2019
Temperature: 8.0°C (46°F)
Dewpoint: 4.0°C (39°F) [RH = 76%]
Pressure (altimeter): 29.65 inches Hg (1004.0 mb)
Winds: from the WSW (250 degrees) at 14 MPH (12 knots; 6.2 m/s)
Visibility: 6 or more miles (10+ km)
Ceiling: at least 12,000 feet AGL
Clouds: scattered clouds at 2300 feet AGL
few clouds at 2300 feet AGL
scattered clouds at 4000 feet AGL
Weather: no significant weather observed at this time

METAR text: LFPO 121130Z 25010KT 9999 BKN023 FEW026CB BKN040 08/04 Q1004 TEMPO 4000 -SHRA BKN020TCU
Conditions at: LFPO (PARIS/ORLY , FR) observed 1130 UTC 12 November 2019
Temperature: 8.0°C (46°F)
Dewpoint: 4.0°C (39°F) [RH = 76%]
Pressure (altimeter): 29.65 inches Hg (1004.0 mb)
Winds: from the WSW (250 degrees) at 12 MPH (10 knots; 5.1 m/s)
Visibility: 6 or more miles (10+ km)
Ceiling: 2300 feet AGL
Clouds: broken clouds at 2300 feet AGL
few clouds at 2600 feet AGL
broken clouds at 4000 feet AGL
Weather: no significant weather observed at this time

METAR text: LFPO 121100Z 25014KT 9999 BKN023 BKN066 BKN100 08/04 Q1005 TEMPO 4000 -SHRA BKN020TCU
Conditions at: LFPO (PARIS/ORLY , FR) observed 1100 UTC 12 November 2019
Temperature: 8.0°C (46°F)
Dewpoint: 4.0°C (39°F) [RH = 76%]
Pressure (altimeter): 29.68 inches Hg (1005.0 mb)
Winds: from the WSW (250 degrees) at 16 MPH (14 knots; 7.2 m/s)
Visibility: 6 or more miles (10+ km)
Ceiling: 2300 feet AGL
Clouds: broken clouds at 2300 feet AGL
broken clouds at 6600 feet AGL
broken clouds at 10000 feet AGL
Weather: no significant weather observed at this time

METAR text: LFPO 121030Z 25011KT 9999 SCT022 BKN027 08/04 Q1005 TEMPO 4000 -SHRA BKN020TCU
Conditions at: LFPO (PARIS/ORLY , FR) observed 1030 UTC 12 November 2019
Temperature: 8.0°C (46°F)
Dewpoint: 4.0°C (39°F) [RH = 76%]
Pressure (altimeter): 29.68 inches Hg (1005.0 mb)
Winds: from the WSW (250 degrees) at 13 MPH (11 knots; 5.7 m/s)
Visibility: 6 or more miles (10+ km)
Ceiling: 2700 feet AGL
Clouds: scattered clouds at 2200 feet AGL
broken clouds at 2700 feet AGL
Weather: no significant weather observed at this time

METAR text: LFPO 121000Z 24008KT 9999 BKN017 SCT020TCU BKN040 07/04 Q1005 TEMPO 4000 -SHRA BKN020TCU
Conditions at: LFPO (PARIS/ORLY , FR) observed 1000 UTC 12 November 2019
Temperature: 7.0°C (45°F)
Dewpoint: 4.0°C (39°F) [RH = 81%]
Pressure (altimeter): 29.68 inches Hg (1005.0 mb)
Winds: from the WSW (240 degrees) at 9 MPH (8 knots; 4.1 m/s)
Visibility: 6 or more miles (10+ km)
Ceiling: 1700 feet AGL
Clouds: broken clouds at 1700 feet AGL
scattered clouds at 2000 feet AGL
broken clouds at 4000 feet AGL
Weather: no significant weather observed at this time

METAR text: LFPO 120930Z 24008KT 9999 BKN014 SCT033 BKN096 06/04 Q1005 NOSIG
Conditions at: LFPO (PARIS/ORLY , FR) observed 0930 UTC 12 November 2019
Temperature: 6.0°C (43°F)
Dewpoint: 4.0°C (39°F) [RH = 87%]
Pressure (altimeter): 29.68 inches Hg (1005.0 mb)
Winds: from the WSW (240 degrees) at 9 MPH (8 knots; 4.1 m/s)
Visibility: 6 or more miles (10+ km)
Ceiling: 1400 feet AGL
Clouds: broken clouds at 1400 feet AGL
scattered clouds at 3300 feet AGL
broken clouds at 9600 feet AGL
Weather: no significant weather observed at this time

METAR text: LFPO 120900Z 25010KT 220V280 9999 SCT011 SCT021 06/04 Q1005 NOSIG
Conditions at: LFPO (PARIS/ORLY , FR) observed 0900 UTC 12 November 2019
Temperature: 6.0°C (43°F)
Dewpoint: 4.0°C (39°F) [RH = 87%]
Pressure (altimeter): 29.68 inches Hg (1005.0 mb)
Winds: from the WSW (250 degrees) at 12 MPH (10 knots; 5.1 m/s)
Visibility: 6 or more miles (10+ km)
Ceiling: at least 12,000 feet AGL
Clouds: scattered clouds at 1100 feet AGL
scattered clouds at 2100 feet AGL
Weather: no significant weather observed at this time

METAR text: LFPO 120830Z 24008KT 9999 SCT011 SCT032 05/04 Q1005 NOSIG
Conditions at: LFPO (PARIS/ORLY , FR) observed 0830 UTC 12 November 2019
Temperature: 5.0°C (41°F)
Dewpoint: 4.0°C (39°F) [RH = 93%]
Pressure (altimeter): 29.68 inches Hg (1005.0 mb)
Winds: from the WSW (240 degrees) at 9 MPH (8 knots; 4.1 m/s)
Visibility: 6 or more miles (10+ km)
Ceiling: at least 12,000 feet AGL
Clouds: scattered clouds at 1100 feet AGL
scattered clouds at 3200 feet AGL
Weather: no significant weather observed at this time

METAR text: LFPO 120800Z 23010KT 9999 SCT011 BKN100 05/04 Q1005 TEMPO SHRA BKN025TCU
Conditions at: LFPO (PARIS/ORLY , FR) observed 0800 UTC 12 November 2019
Temperature: 5.0°C (41°F)
Dewpoint: 4.0°C (39°F) [RH = 93%]
Pressure (altimeter): 29.68 inches Hg (1005.0 mb)
Winds: from the SW (230 degrees) at 12 MPH (10 knots; 5.1 m/s)
Visibility: 6 or more miles (10+ km)
Ceiling: 10000 feet AGL
Clouds: scattered clouds at 1100 feet AGL
broken clouds at 10000 feet AGL
Weather: no significant weather observed at this time

Forecast for: LFPO (PARIS/ORLY , FR)
Text: TAF LFPO 131700Z 1318/1424 20010KT 9999 SCT025
Forecast period: 1800 UTC 13 November 2019 to 1600 UTC 14 November 2019
Forecast type: FROM: standard forecast or significant change
Winds: from the SSW (200 degrees) at 12 MPH (10 knots; 5.1 m/s)
Visibility: 6 or more miles 10+ km)
Ceiling: at least 12,000 feet AGL
Clouds: scattered clouds at 2500 feet AGL
Weather: no significant weather forecast for this period
Text: TEMPO 1323/1403 16020G30KT 3000 RA BKN012 SCT020CB
Forecast period: 2300 UTC 13 November 2019 to 0300 UTC 14 November 2019
Forecast type: TEMPORARY: The following changes expected for less than half the time period
Winds: from the SSE (160 degrees) at 23 MPH (20 knots; 10.3 m/s)
gusting to 34 MPH (30 knots; 15.4 m/s)
Visibility: 1.86 miles (2.99 km)
Ceiling: 1200 feet AGL
Clouds: broken clouds at 1200 feet AGL
scattered clouds at 2000 feet AGL
Weather: RA  (moderate rain)
Text: PROB40
Forecast period: 0300 to 1100 UTC 14 November 2019
Forecast type: TEMPORARY: The following changes expected for less than half the time period
Visibility: missing
Ceiling: 1200 feet AGL
Clouds: broken clouds at 1200 feet AGL
Weather: no significant weather forecast for this period
Text: TEMPO 1403/1411 BKN012
Forecast period: 1600 to 2200 UTC 14 November 2019
Forecast type: BECOMING: Conditions expected to become as follows by 1900 UTC 14 November 2019
Winds: from the ENE (60 degrees) at 5 MPH (4 knots; 2.1 m/s)
Visibility: 6 or more miles 10+ km)
Ceiling: at least 12,000 feet AGL
Clouds: scattered clouds at 2500 feet AGL
Weather: no significant weather forecast for this period
Text: BECMG 1416/1419 06004KT
Forecast period: 2200 UTC 14 November 2019 to 0000 UTC 15 November 2019
Forecast type: BECOMING: Conditions expected to become as follows by 0000 UTC 15 November 2019
Winds: from the ENE (60 degrees) at 5 MPH (4 knots; 2.1 m/s)
Visibility: 2.49 miles (4.01 km)
Ceiling: at least 12,000 feet AGL
Clouds: scattered clouds at 2500 feet AGL
Weather: BR  (mist)